New London, PA

3:51 PM EDT on June 03, 2015 (GMT -0400)
Wayside | | Change Station
CLOSE
Current Station
Personal Weather Station
Location: New London Twp, PA
Elevation: 300 ft
Nearby Weather Stations

Elev 300 ft 39.75 °N, 75.87 °W | Updated 2 minutes ago

Overcast
Overcast
66.2 °F
Feels Like 66.2 °F
N
5.4
Wind Variable Wind from North
Gusts 7.6 mph

Today
High -- | Low -- °F
--% Chance of Precip.
Yesterday
High -- | Low -- °F
Precip. -- in
5:36 AM 8:26 PM
Full, 98% visible
Pressure 30.19 in
Visibility 10.0 miles
Clouds Overcast 2500 ft
Dew Point 57 °F
Humidity 72%
Rainfall 0.00 in
Snow Depth Not available.
UV 3 out of 12
Pollen 4.30 out of 12
Air Quality Not available.
Flu Activity Sporadic
METAR KMQS 031935Z AUTO 09004KT 10SM OVC025 17/12 A3019 RMK AO2

More Conditions Fewer Conditions

Pressure 30.19 in
Visibility 10.0 miles
Clouds Overcast 2500 ft
Dew Point 57 °F
Humidity 72%
Rainfall 0.00 in
Snow Depth Not available.
UV 3 out of 12
Pollen 4.30 out of 12
Air Quality Not available.
Flu Activity Sporadic
METAR KMQS 031935Z AUTO 09004KT 10SM OVC025 17/12 A3019 RMK AO2

More Conditions Fewer Conditions

10-Day Weather Forecast

×

Almanac

Astronomy

Jun. 03, 2015 Rise Set
Actual Time
Civil Twilight
Nautical Twilight
Astronomical Twilight
Moon
Length of Visible Light
Length of Day
Tomorrow will be .
, % of the Moon is Illuminated

Today's Extremes

State Highs State Lows

Community

WunderPhotos

Upload Photos

1,826,274 photos uploaded!

WunderBlogs® & News

Nearby

Air Quality

  Air Quality AQ Index Pollutant
Not available.

Snow Depth

Station Depth Elevation

Earthquake Activity

City Distance Mag. Time & Date
Minimum magnitude displayed is 2.5.

Coastal Water Temperatures

Place Temperature

Stations

Nearby Weather Stations

Station Location Temp. Windchill Dew Point Humidity Wind Precip. Elev Updated Type